sensor_id;sensor_type;location;lat;lon;timestamp;temperature;humidity
22532;DHT22;11432;46.924;7.114;2022-07-24T00:01:33;22.20;1.00
22532;DHT22;11432;46.924;7.114;2022-07-24T00:03:59;22.20;1.00
22532;DHT22;11432;46.924;7.114;2022-07-24T00:06:24;22.10;1.00
22532;DHT22;11432;46.924;7.114;2022-07-24T00:08:50;22.10;1.00
22532;DHT22;11432;46.924;7.114;2022-07-24T00:11:16;22.20;1.00
22532;DHT22;11432;46.924;7.114;2022-07-24T00:13:42;22.20;1.00
22532;DHT22;11432;46.924;7.114;2022-07-24T00:16:08;22.20;1.00
22532;DHT22;11432;46.924;7.114;2022-07-24T00:18:34;22.20;1.00
22532;DHT22;11432;46.924;7.114;2022-07-24T00:20:59;22.10;1.00
22532;DHT22;11432;46.924;7.114;2022-07-24T00:23:25;22.10;1.00
22532;DHT22;11432;46.924;7.114;2022-07-24T00:25:51;22.20;1.00
22532;DHT22;11432;46.924;7.114;2022-07-24T00:28:17;22.10;1.00
22532;DHT22;11432;46.924;7.114;2022-07-24T00:30:43;22.20;1.00
22532;DHT22;11432;46.924;7.114;2022-07-24T00:33:08;22.10;1.00
22532;DHT22;11432;46.924;7.114;2022-07-24T00:35:34;22.10;1.00
22532;DHT22;11432;46.924;7.114;2022-07-24T00:38:00;22.10;1.00
22532;DHT22;11432;46.924;7.114;2022-07-24T00:40:26;22.00;1.00
22532;DHT22;11432;46.924;7.114;2022-07-24T00:42:53;22.10;1.00
22532;DHT22;11432;46.924;7.114;2022-07-24T00:45:19;22.00;1.00
22532;DHT22;11432;46.924;7.114;2022-07-24T00:47:45;21.80;1.00
22532;DHT22;11432;46.924;7.114;2022-07-24T00:50:11;21.60;1.00
22532;DHT22;11432;46.924;7.114;2022-07-24T00:52:37;21.50;1.00
22532;DHT22;11432;46.924;7.114;2022-07-24T00:55:04;21.50;1.00
22532;DHT22;11432;46.924;7.114;2022-07-24T00:57:30;21.60;1.00
22532;DHT22;11432;46.924;7.114;2022-07-24T00:59:56;21.60;1.00
22532;DHT22;11432;46.924;7.114;2022-07-24T01:02:21;21.60;1.00
22532;DHT22;11432;46.924;7.114;2022-07-24T01:04:48;21.50;1.00
22532;DHT22;11432;46.924;7.114;2022-07-24T01:07:14;21.40;1.00
22532;DHT22;11432;46.924;7.114;2022-07-24T01:09:41;21.40;1.00
22532;DHT22;11432;46.924;7.114;2022-07-24T01:12:07;21.40;1.00
22532;DHT22;11432;46.924;7.114;2022-07-24T01:14:33;21.30;1.00
22532;DHT22;11432;46.924;7.114;2022-07-24T01:16:59;21.30;1.00
22532;DHT22;11432;46.924;7.114;2022-07-24T01:19:25;21.30;1.00
22532;DHT22;11432;46.924;7.114;2022-07-24T01:21:52;21.40;1.00
22532;DHT22;11432;46.924;7.114;2022-07-24T01:24:18;21.40;17.50
22532;DHT22;11432;46.924;7.114;2022-07-24T01:26:45;21.20;1.00
22532;DHT22;11432;46.924;7.114;2022-07-24T01:29:11;21.10;5.00
22532;DHT22;11432;46.924;7.114;2022-07-24T01:31:37;21.00;17.20
22532;DHT22;11432;46.924;7.114;2022-07-24T01:34:03;21.00;37.00
22532;DHT22;11432;46.924;7.114;2022-07-24T01:36:29;20.80;35.10
22532;DHT22;11432;46.924;7.114;2022-07-24T01:38:55;20.90;66.10
22532;DHT22;11432;46.924;7.114;2022-07-24T01:41:27;20.90;40.00
22532;DHT22;11432;46.924;7.114;2022-07-24T01:43:52;20.90;77.40
22532;DHT22;11432;46.924;7.114;2022-07-24T01:46:18;20.80;99.90
22532;DHT22;11432;46.924;7.114;2022-07-24T01:48:44;20.70;99.90
22532;DHT22;11432;46.924;7.114;2022-07-24T01:51:10;20.70;99.90
22532;DHT22;11432;46.924;7.114;2022-07-24T01:53:35;20.70;99.90
22532;DHT22;11432;46.924;7.114;2022-07-24T01:56:01;20.80;98.20
22532;DHT22;11432;46.924;7.114;2022-07-24T01:58:27;20.80;90.00
22532;DHT22;11432;46.924;7.114;2022-07-24T02:00:53;20.80;91.10
22532;DHT22;11432;46.924;7.114;2022-07-24T02:03:20;20.70;98.80
22532;DHT22;11432;46.924;7.114;2022-07-24T02:05:46;20.70;99.90
22532;DHT22;11432;46.924;7.114;2022-07-24T02:08:12;20.80;95.40
22532;DHT22;11432;46.924;7.114;2022-07-24T02:10:38;20.80;99.90
22532;DHT22;11432;46.924;7.114;2022-07-24T02:13:05;20.90;99.90
22532;DHT22;11432;46.924;7.114;2022-07-24T02:15:30;20.90;96.70
22532;DHT22;11432;46.924;7.114;2022-07-24T02:17:58;20.80;84.40
22532;DHT22;11432;46.924;7.114;2022-07-24T02:20:24;20.70;60.60
22532;DHT22;11432;46.924;7.114;2022-07-24T02:22:50;20.60;81.10
22532;DHT22;11432;46.924;7.114;2022-07-24T02:25:16;20.50;99.90
22532;DHT22;11432;46.924;7.114;2022-07-24T02:27:42;20.60;99.90
22532;DHT22;11432;46.924;7.114;2022-07-24T02:30:11;20.50;99.60
22532;DHT22;11432;46.924;7.114;2022-07-24T02:32:36;20.40;99.90
22532;DHT22;11432;46.924;7.114;2022-07-24T02:35:02;20.30;99.90
22532;DHT22;11432;46.924;7.114;2022-07-24T02:37:28;20.30;99.90
22532;DHT22;11432;46.924;7.114;2022-07-24T02:39:54;20.40;99.90
22532;DHT22;11432;46.924;7.114;2022-07-24T02:42:20;20.50;99.90
22532;DHT22;11432;46.924;7.114;2022-07-24T02:44:45;20.60;96.10
22532;DHT22;11432;46.924;7.114;2022-07-24T02:47:11;20.60;77.70
22532;DHT22;11432;46.924;7.114;2022-07-24T02:49:37;20.40;99.90
22532;DHT22;11432;46.924;7.114;2022-07-24T02:52:03;20.30;99.90
22532;DHT22;11432;46.924;7.114;2022-07-24T02:54:29;20.20;99.90
22532;DHT22;11432;46.924;7.114;2022-07-24T02:56:54;20.20;99.90
22532;DHT22;11432;46.924;7.114;2022-07-24T02:59:20;20.10;99.90
22532;DHT22;11432;46.924;7.114;2022-07-24T03:01:45;20.10;99.90
22532;DHT22;11432;46.924;7.114;2022-07-24T03:04:11;20.10;99.90
22532;DHT22;11432;46.924;7.114;2022-07-24T03:06:37;20.20;99.90
22532;DHT22;11432;46.924;7.114;2022-07-24T03:09:03;20.10;99.90
22532;DHT22;11432;46.924;7.114;2022-07-24T03:11:29;20.10;99.90
22532;DHT22;11432;46.924;7.114;2022-07-24T03:13:55;20.10;99.90
22532;DHT22;11432;46.924;7.114;2022-07-24T03:16:21;20.10;99.90
22532;DHT22;11432;46.924;7.114;2022-07-24T03:18:46;20.20;99.90
22532;DHT22;11432;46.924;7.114;2022-07-24T03:21:14;20.30;99.90
22532;DHT22;11432;46.924;7.114;2022-07-24T03:23:40;20.30;99.90
22532;DHT22;11432;46.924;7.114;2022-07-24T03:26:06;20.20;99.90
22532;DHT22;11432;46.924;7.114;2022-07-24T03:28:32;20.10;99.90
22532;DHT22;11432;46.924;7.114;2022-07-24T03:30:58;20.10;99.90
22532;DHT22;11432;46.924;7.114;2022-07-24T03:33:23;20.00;99.90
22532;DHT22;11432;46.924;7.114;2022-07-24T03:35:49;19.90;99.90
22532;DHT22;11432;46.924;7.114;2022-07-24T03:38:15;19.70;99.90
22532;DHT22;11432;46.924;7.114;2022-07-24T03:40:41;19.60;99.90
22532;DHT22;11432;46.924;7.114;2022-07-24T03:43:06;19.70;99.90
22532;DHT22;11432;46.924;7.114;2022-07-24T03:45:32;19.90;99.90
22532;DHT22;11432;46.924;7.114;2022-07-24T03:47:58;20.00;99.90
22532;DHT22;11432;46.924;7.114;2022-07-24T03:50:23;20.10;99.90
22532;DHT22;11432;46.924;7.114;2022-07-24T03:52:49;20.00;99.90
22532;DHT22;11432;46.924;7.114;2022-07-24T03:55:15;19.80;99.90
22532;DHT22;11432;46.924;7.114;2022-07-24T03:57:41;19.80;99.90
22532;DHT22;11432;46.924;7.114;2022-07-24T04:00:07;19.80;99.90
22532;DHT22;11432;46.924;7.114;2022-07-24T04:02:34;19.80;99.90
22532;DHT22;11432;46.924;7.114;2022-07-24T04:05:00;19.70;99.90
22532;DHT22;11432;46.924;7.114;2022-07-24T04:07:25;19.60;99.90
22532;DHT22;11432;46.924;7.114;2022-07-24T04:09:51;19.70;99.90
22532;DHT22;11432;46.924;7.114;2022-07-24T04:12:17;19.80;99.90
22532;DHT22;11432;46.924;7.114;2022-07-24T04:14:42;19.90;99.90
22532;DHT22;11432;46.924;7.114;2022-07-24T04:17:08;19.90;99.90
22532;DHT22;11432;46.924;7.114;2022-07-24T04:19:34;19.90;99.90
22532;DHT22;11432;46.924;7.114;2022-07-24T04:21:59;19.90;99.90
22532;DHT22;11432;46.924;7.114;2022-07-24T04:24:25;19.70;99.90
22532;DHT22;11432;46.924;7.114;2022-07-24T04:26:51;19.60;99.90
22532;DHT22;11432;46.924;7.114;2022-07-24T04:29:16;19.60;99.90
22532;DHT22;11432;46.924;7.114;2022-07-24T04:31:42;19.70;99.90
22532;DHT22;11432;46.924;7.114;2022-07-24T04:34:08;19.70;99.90
22532;DHT22;11432;46.924;7.114;2022-07-24T04:36:33;19.60;99.90
22532;DHT22;11432;46.924;7.114;2022-07-24T04:38:59;19.50;99.90
22532;DHT22;11432;46.924;7.114;2022-07-24T04:41:24;19.50;99.90
22532;DHT22;11432;46.924;7.114;2022-07-24T04:43:50;19.60;99.90
22532;DHT22;11432;46.924;7.114;2022-07-24T04:46:17;19.60;99.90
22532;DHT22;11432;46.924;7.114;2022-07-24T04:48:43;19.60;99.90
22532;DHT22;11432;46.924;7.114;2022-07-24T04:51:08;19.60;99.90
22532;DHT22;11432;46.924;7.114;2022-07-24T04:53:34;19.50;99.90
22532;DHT22;11432;46.924;7.114;2022-07-24T04:55:59;19.50;99.90
22532;DHT22;11432;46.924;7.114;2022-07-24T04:58:26;19.60;99.90
22532;DHT22;11432;46.924;7.114;2022-07-24T05:00:52;19.60;99.90
22532;DHT22;11432;46.924;7.114;2022-07-24T05:03:18;19.50;99.90
22532;DHT22;11432;46.924;7.114;2022-07-24T05:05:43;19.60;99.90
22532;DHT22;11432;46.924;7.114;2022-07-24T05:08:09;19.70;99.90
22532;DHT22;11432;46.924;7.114;2022-07-24T05:10:35;19.70;99.90
22532;DHT22;11432;46.924;7.114;2022-07-24T05:13:01;19.70;99.90
22532;DHT22;11432;46.924;7.114;2022-07-24T05:15:26;19.90;99.90
22532;DHT22;11432;46.924;7.114;2022-07-24T05:17:52;20.10;99.90
22532;DHT22;11432;46.924;7.114;2022-07-24T05:20:18;20.20;99.90
22532;DHT22;11432;46.924;7.114;2022-07-24T05:22:43;20.20;99.90
22532;DHT22;11432;46.924;7.114;2022-07-24T05:25:09;20.30;99.90
22532;DHT22;11432;46.924;7.114;2022-07-24T05:27:35;20.40;99.90
22532;DHT22;11432;46.924;7.114;2022-07-24T05:30:00;20.40;99.90
22532;DHT22;11432;46.924;7.114;2022-07-24T05:32:26;20.50;99.90
22532;DHT22;11432;46.924;7.114;2022-07-24T05:34:52;20.60;99.90
22532;DHT22;11432;46.924;7.114;2022-07-24T05:37:17;20.70;99.90
22532;DHT22;11432;46.924;7.114;2022-07-24T05:39:43;20.70;98.40
22532;DHT22;11432;46.924;7.114;2022-07-24T05:42:09;20.80;79.60
22532;DHT22;11432;46.924;7.114;2022-07-24T05:44:34;21.00;80.20
22532;DHT22;11432;46.924;7.114;2022-07-24T05:47:00;21.20;62.70
22532;DHT22;11432;46.924;7.114;2022-07-24T05:49:26;21.10;41.10
22532;DHT22;11432;46.924;7.114;2022-07-24T05:51:51;21.10;62.50
22532;DHT22;11432;46.924;7.114;2022-07-24T05:54:17;21.20;43.30
22532;DHT22;11432;46.924;7.114;2022-07-24T05:56:43;21.40;31.90
22532;DHT22;11432;46.924;7.114;2022-07-24T05:59:08;21.50;27.60
22532;DHT22;11432;46.924;7.114;2022-07-24T06:01:34;21.40;99.90
22532;DHT22;11432;46.924;7.114;2022-07-24T06:04:00;21.30;99.90
22532;DHT22;11432;46.924;7.114;2022-07-24T06:06:25;21.30;99.90
22532;DHT22;11432;46.924;7.114;2022-07-24T06:08:51;21.20;99.90
22532;DHT22;11432;46.924;7.114;2022-07-24T06:11:16;21.20;99.90
22532;DHT22;11432;46.924;7.114;2022-07-24T06:13:43;21.20;99.90
22532;DHT22;11432;46.924;7.114;2022-07-24T06:16:08;21.10;94.00
22532;DHT22;11432;46.924;7.114;2022-07-24T06:18:34;21.10;99.90
22532;DHT22;11432;46.924;7.114;2022-07-24T06:21:00;21.20;49.10
22532;DHT22;11432;46.924;7.114;2022-07-24T06:23:25;21.20;18.80
22532;DHT22;11432;46.924;7.114;2022-07-24T06:25:51;21.20;28.20
22532;DHT22;11432;46.924;7.114;2022-07-24T06:28:17;21.30;1.00
22532;DHT22;11432;46.924;7.114;2022-07-24T06:30:42;21.40;1.00
22532;DHT22;11432;46.924;7.114;2022-07-24T06:33:08;21.40;4.00
22532;DHT22;11432;46.924;7.114;2022-07-24T06:35:34;21.40;10.60
22532;DHT22;11432;46.924;7.114;2022-07-24T06:38:00;21.40;1.00
22532;DHT22;11432;46.924;7.114;2022-07-24T06:40:26;21.40;1.00
22532;DHT22;11432;46.924;7.114;2022-07-24T06:42:52;21.50;1.00
22532;DHT22;11432;46.924;7.114;2022-07-24T06:45:17;21.50;1.00
22532;DHT22;11432;46.924;7.114;2022-07-24T06:47:43;21.60;1.00
22532;DHT22;11432;46.924;7.114;2022-07-24T06:50:10;21.60;1.00
22532;DHT22;11432;46.924;7.114;2022-07-24T06:52:37;21.70;1.00
22532;DHT22;11432;46.924;7.114;2022-07-24T06:55:03;21.70;1.00
22532;DHT22;11432;46.924;7.114;2022-07-24T06:57:28;21.70;1.00
22532;DHT22;11432;46.924;7.114;2022-07-24T06:59:54;21.80;1.00
22532;DHT22;11432;46.924;7.114;2022-07-24T07:02:21;21.90;1.00
22532;DHT22;11432;46.924;7.114;2022-07-24T07:04:47;22.10;1.00
22532;DHT22;11432;46.924;7.114;2022-07-24T07:07:13;22.20;1.00
22532;DHT22;11432;46.924;7.114;2022-07-24T07:09:39;22.30;1.00
22532;DHT22;11432;46.924;7.114;2022-07-24T07:12:05;22.30;1.00
22532;DHT22;11432;46.924;7.114;2022-07-24T07:14:31;22.30;1.00
22532;DHT22;11432;46.924;7.114;2022-07-24T07:16:56;22.30;1.00
22532;DHT22;11432;46.924;7.114;2022-07-24T07:19:22;22.30;1.00
22532;DHT22;11432;46.924;7.114;2022-07-24T07:21:48;22.40;1.00
22532;DHT22;11432;46.924;7.114;2022-07-24T07:24:13;22.40;1.00
22532;DHT22;11432;46.924;7.114;2022-07-24T07:26:39;22.60;1.00
22532;DHT22;11432;46.924;7.114;2022-07-24T07:29:05;22.70;1.00
22532;DHT22;11432;46.924;7.114;2022-07-24T07:31:30;22.70;1.00
22532;DHT22;11432;46.924;7.114;2022-07-24T07:33:56;22.80;1.00
22532;DHT22;11432;46.924;7.114;2022-07-24T07:36:23;22.90;1.00
22532;DHT22;11432;46.924;7.114;2022-07-24T07:38:49;23.10;1.00
22532;DHT22;11432;46.924;7.114;2022-07-24T07:41:15;23.00;1.00
22532;DHT22;11432;46.924;7.114;2022-07-24T07:43:41;23.10;1.00
22532;DHT22;11432;46.924;7.114;2022-07-24T07:46:07;23.20;1.00
22532;DHT22;11432;46.924;7.114;2022-07-24T07:48:33;23.30;1.00
22532;DHT22;11432;46.924;7.114;2022-07-24T07:50:59;23.40;1.00
22532;DHT22;11432;46.924;7.114;2022-07-24T07:53:24;23.30;1.00
22532;DHT22;11432;46.924;7.114;2022-07-24T07:55:50;23.50;1.00
22532;DHT22;11432;46.924;7.114;2022-07-24T07:58:18;23.50;1.00
22532;DHT22;11432;46.924;7.114;2022-07-24T08:00:44;23.40;1.00
22532;DHT22;11432;46.924;7.114;2022-07-24T08:03:09;23.40;1.00
22532;DHT22;11432;46.924;7.114;2022-07-24T08:05:35;23.60;1.00
22532;DHT22;11432;46.924;7.114;2022-07-24T08:08:01;23.90;1.00
22532;DHT22;11432;46.924;7.114;2022-07-24T08:10:27;24.10;1.00
22532;DHT22;11432;46.924;7.114;2022-07-24T08:12:52;24.20;1.00
22532;DHT22;11432;46.924;7.114;2022-07-24T08:15:19;24.20;15.30
22532;DHT22;11432;46.924;7.114;2022-07-24T08:17:45;24.40;2.10
22532;DHT22;11432;46.924;7.114;2022-07-24T08:20:11;24.60;1.00
22532;DHT22;11432;46.924;7.114;2022-07-24T08:22:36;24.80;1.00
22532;DHT22;11432;46.924;7.114;2022-07-24T08:25:02;24.80;55.10
22532;DHT22;11432;46.924;7.114;2022-07-24T08:27:28;24.90;41.40
22532;DHT22;11432;46.924;7.114;2022-07-24T08:29:54;24.80;64.50
22532;DHT22;11432;46.924;7.114;2022-07-24T08:32:20;24.70;38.50
22532;DHT22;11432;46.924;7.114;2022-07-24T08:34:46;24.70;33.20
22532;DHT22;11432;46.924;7.114;2022-07-24T08:37:11;24.70;59.50
22532;DHT22;11432;46.924;7.114;2022-07-24T08:39:37;24.90;36.30
22532;DHT22;11432;46.924;7.114;2022-07-24T08:42:03;25.10;31.40
22532;DHT22;11432;46.924;7.114;2022-07-24T08:44:29;25.00;63.30
22532;DHT22;11432;46.924;7.114;2022-07-24T08:46:58;25.00;75.60
22532;DHT22;11432;46.924;7.114;2022-07-24T08:49:26;25.20;56.60
22532;DHT22;11432;46.924;7.114;2022-07-24T08:51:56;25.20;78.40
22532;DHT22;11432;46.924;7.114;2022-07-24T08:54:23;25.10;64.70
22532;DHT22;11432;46.924;7.114;2022-07-24T08:56:49;25.00;64.00
22532;DHT22;11432;46.924;7.114;2022-07-24T08:59:19;25.10;53.00
22532;DHT22;11432;46.924;7.114;2022-07-24T09:01:47;25.30;1.00
22532;DHT22;11432;46.924;7.114;2022-07-24T09:06:58;25.40;1.00
22532;DHT22;11432;46.924;7.114;2022-07-24T09:09:24;25.40;1.00
22532;DHT22;11432;46.924;7.114;2022-07-24T09:11:49;25.50;1.00
22532;DHT22;11432;46.924;7.114;2022-07-24T09:14:16;25.70;1.00
22532;DHT22;11432;46.924;7.114;2022-07-24T09:17:11;25.80;1.00
22532;DHT22;11432;46.924;7.114;2022-07-24T09:27:34;26.30;9.30
22532;DHT22;11432;46.924;7.114;2022-07-24T09:30:00;26.40;30.20
22532;DHT22;11432;46.924;7.114;2022-07-24T09:32:27;26.30;19.40
22532;DHT22;11432;46.924;7.114;2022-07-24T09:34:53;26.30;22.90
22532;DHT22;11432;46.924;7.114;2022-07-24T09:37:20;26.40;1.00
22532;DHT22;11432;46.924;7.114;2022-07-24T09:39:46;26.70;25.70
22532;DHT22;11432;46.924;7.114;2022-07-24T09:42:12;26.90;54.10
22532;DHT22;11432;46.924;7.114;2022-07-24T09:44:38;26.90;27.50
22532;DHT22;11432;46.924;7.114;2022-07-24T09:47:09;26.40;38.90
22532;DHT22;11432;46.924;7.114;2022-07-24T09:49:36;26.60;40.10
22532;DHT22;11432;46.924;7.114;2022-07-24T09:54:32;26.80;37.10
22532;DHT22;11432;46.924;7.114;2022-07-24T09:59:57;27.00;22.40
22532;DHT22;11432;46.924;7.114;2022-07-24T10:02:28;27.00;23.20
22532;DHT22;11432;46.924;7.114;2022-07-24T10:04:55;27.00;32.00
22532;DHT22;11432;46.924;7.114;2022-07-24T10:07:23;27.10;25.20
22532;DHT22;11432;46.924;7.114;2022-07-24T10:09:50;27.00;35.10
22532;DHT22;11432;46.924;7.114;2022-07-24T10:12:18;27.30;27.60
22532;DHT22;11432;46.924;7.114;2022-07-24T10:14:46;27.20;34.50
22532;DHT22;11432;46.924;7.114;2022-07-24T10:17:13;27.60;41.90
22532;DHT22;11432;46.924;7.114;2022-07-24T10:19:44;27.50;49.80
22532;DHT22;11432;46.924;7.114;2022-07-24T10:22:16;28.00;40.90
22532;DHT22;11432;46.924;7.114;2022-07-24T10:24:52;28.30;51.50
22532;DHT22;11432;46.924;7.114;2022-07-24T10:27:36;28.50;63.60
22532;DHT22;11432;46.924;7.114;2022-07-24T10:30:10;28.60;59.20
22532;DHT22;11432;46.924;7.114;2022-07-24T10:32:37;28.70;65.40
22532;DHT22;11432;46.924;7.114;2022-07-24T10:35:17;28.40;67.30
22532;DHT22;11432;46.924;7.114;2022-07-24T10:37:59;28.50;65.10
22532;DHT22;11432;46.924;7.114;2022-07-24T10:45:36;28.20;64.90
22532;DHT22;11432;46.924;7.114;2022-07-24T10:56:19;28.70;62.40
22532;DHT22;11432;46.924;7.114;2022-07-24T11:01:50;29.20;65.00
22532;DHT22;11432;46.924;7.114;2022-07-24T11:09:23;29.30;63.50
22532;DHT22;11432;46.924;7.114;2022-07-24T11:15:04;29.40;67.60
22532;DHT22;11432;46.924;7.114;2022-07-24T11:17:42;29.30;66.60
22532;DHT22;11432;46.924;7.114;2022-07-24T11:20:19;29.20;67.60
22532;DHT22;11432;46.924;7.114;2022-07-24T11:25:17;29.40;67.10
22532;DHT22;11432;46.924;7.114;2022-07-24T11:30:13;29.30;67.10
22532;DHT22;11432;46.924;7.114;2022-07-24T11:32:40;29.70;67.10
22532;DHT22;11432;46.924;7.114;2022-07-24T11:35:06;29.80;65.70
22532;DHT22;11432;46.924;7.114;2022-07-24T11:37:37;29.90;63.20
22532;DHT22;11432;46.924;7.114;2022-07-24T11:40:05;30.10;64.10
22532;DHT22;11432;46.924;7.114;2022-07-24T11:42:32;30.10;62.50
22532;DHT22;11432;46.924;7.114;2022-07-24T11:44:58;30.30;63.10
22532;DHT22;11432;46.924;7.114;2022-07-24T11:47:25;30.50;63.50
22532;DHT22;11432;46.924;7.114;2022-07-24T11:50:04;30.70;62.60
22532;DHT22;11432;46.924;7.114;2022-07-24T11:52:34;30.90;61.90
22532;DHT22;11432;46.924;7.114;2022-07-24T11:55:09;30.60;57.10
22532;DHT22;11432;46.924;7.114;2022-07-24T11:57:37;30.40;59.90
22532;DHT22;11432;46.924;7.114;2022-07-24T12:00:15;30.30;61.90
22532;DHT22;11432;46.924;7.114;2022-07-24T12:02:49;30.30;61.90
22532;DHT22;11432;46.924;7.114;2022-07-24T12:05:30;30.20;62.20
22532;DHT22;11432;46.924;7.114;2022-07-24T12:07:58;30.40;59.80
22532;DHT22;11432;46.924;7.114;2022-07-24T12:10:25;30.40;56.80
22532;DHT22;11432;46.924;7.114;2022-07-24T12:12:52;30.40;59.80
22532;DHT22;11432;46.924;7.114;2022-07-24T12:15:19;30.60;57.70
22532;DHT22;11432;46.924;7.114;2022-07-24T12:18:12;30.80;57.60
22532;DHT22;11432;46.924;7.114;2022-07-24T12:20:43;30.80;55.90
22532;DHT22;11432;46.924;7.114;2022-07-24T12:23:11;30.60;56.80
22532;DHT22;11432;46.924;7.114;2022-07-24T12:25:38;30.90;63.80
22532;DHT22;11432;46.924;7.114;2022-07-24T12:28:12;30.90;57.30
22532;DHT22;11432;46.924;7.114;2022-07-24T12:30:40;30.80;58.30
22532;DHT22;11432;46.924;7.114;2022-07-24T12:41:21;30.80;55.80
22532;DHT22;11432;46.924;7.114;2022-07-24T12:46:23;32.00;53.20
22532;DHT22;11432;46.924;7.114;2022-07-24T12:51:52;32.40;49.90
22532;DHT22;11432;46.924;7.114;2022-07-24T12:54:21;32.50;53.00
22532;DHT22;11432;46.924;7.114;2022-07-24T12:56:49;32.70;45.80
22532;DHT22;11432;46.924;7.114;2022-07-24T13:01:59;33.30;45.90
22532;DHT22;11432;46.924;7.114;2022-07-24T13:04:26;33.00;42.00
22532;DHT22;11432;46.924;7.114;2022-07-24T13:06:57;32.90;41.40
22532;DHT22;11432;46.924;7.114;2022-07-24T13:09:24;32.80;36.60
22532;DHT22;11432;46.924;7.114;2022-07-24T13:11:51;32.90;34.80
22532;DHT22;11432;46.924;7.114;2022-07-24T13:14:18;33.40;38.70
22532;DHT22;11432;46.924;7.114;2022-07-24T13:16:46;33.10;38.80
22532;DHT22;11432;46.924;7.114;2022-07-24T13:19:11;32.60;40.60
22532;DHT22;11432;46.924;7.114;2022-07-24T13:21:38;32.50;38.40
22532;DHT22;11432;46.924;7.114;2022-07-24T13:24:05;32.90;37.90
22532;DHT22;11432;46.924;7.114;2022-07-24T13:26:31;33.50;38.10
22532;DHT22;11432;46.924;7.114;2022-07-24T13:28:57;33.60;33.30
22532;DHT22;11432;46.924;7.114;2022-07-24T13:31:23;33.30;34.50
22532;DHT22;11432;46.924;7.114;2022-07-24T13:33:49;34.40;34.90
22532;DHT22;11432;46.924;7.114;2022-07-24T13:36:16;34.10;30.90
22532;DHT22;11432;46.924;7.114;2022-07-24T13:38:43;34.00;31.90
22532;DHT22;11432;46.924;7.114;2022-07-24T13:41:09;34.00;30.00
22532;DHT22;11432;46.924;7.114;2022-07-24T13:43:34;33.80;30.70
22532;DHT22;11432;46.924;7.114;2022-07-24T13:46:00;33.70;30.80
22532;DHT22;11432;46.924;7.114;2022-07-24T13:48:26;33.70;30.70
22532;DHT22;11432;46.924;7.114;2022-07-24T13:50:52;33.40;29.80
22532;DHT22;11432;46.924;7.114;2022-07-24T13:53:17;33.30;27.60
22532;DHT22;11432;46.924;7.114;2022-07-24T13:55:43;34.00;24.30
22532;DHT22;11432;46.924;7.114;2022-07-24T13:58:09;34.90;26.10
22532;DHT22;11432;46.924;7.114;2022-07-24T14:00:35;34.90;28.30
22532;DHT22;11432;46.924;7.114;2022-07-24T14:03:00;34.40;29.50
22532;DHT22;11432;46.924;7.114;2022-07-24T14:05:26;34.40;30.30
22532;DHT22;11432;46.924;7.114;2022-07-24T14:07:53;34.50;29.40
22532;DHT22;11432;46.924;7.114;2022-07-24T14:10:19;34.40;28.80
22532;DHT22;11432;46.924;7.114;2022-07-24T14:12:45;34.90;31.10
22532;DHT22;11432;46.924;7.114;2022-07-24T14:15:11;35.40;30.20
22532;DHT22;11432;46.924;7.114;2022-07-24T14:17:40;35.50;28.60
22532;DHT22;11432;46.924;7.114;2022-07-24T14:20:07;36.00;28.20
22532;DHT22;11432;46.924;7.114;2022-07-24T14:22:38;36.20;27.90
22532;DHT22;11432;46.924;7.114;2022-07-24T14:25:05;36.20;27.00
22532;DHT22;11432;46.924;7.114;2022-07-24T14:27:31;36.20;27.60
22532;DHT22;11432;46.924;7.114;2022-07-24T14:29:57;36.40;25.60
22532;DHT22;11432;46.924;7.114;2022-07-24T14:32:23;36.00;25.00
22532;DHT22;11432;46.924;7.114;2022-07-24T14:34:49;35.50;25.70
22532;DHT22;11432;46.924;7.114;2022-07-24T14:37:15;35.40;24.70
22532;DHT22;11432;46.924;7.114;2022-07-24T14:39:41;34.90;24.30
22532;DHT22;11432;46.924;7.114;2022-07-24T14:42:07;34.30;24.60
22532;DHT22;11432;46.924;7.114;2022-07-24T14:44:32;34.40;24.10
22532;DHT22;11432;46.924;7.114;2022-07-24T14:46:59;34.20;26.20
22532;DHT22;11432;46.924;7.114;2022-07-24T14:49:26;34.00;25.50
22532;DHT22;11432;46.924;7.114;2022-07-24T14:51:52;34.70;27.20
22532;DHT22;11432;46.924;7.114;2022-07-24T14:54:18;35.50;24.90
22532;DHT22;11432;46.924;7.114;2022-07-24T14:56:44;35.60;24.80
22532;DHT22;11432;46.924;7.114;2022-07-24T14:59:09;35.80;24.40
22532;DHT22;11432;46.924;7.114;2022-07-24T15:01:35;35.70;23.20
22532;DHT22;11432;46.924;7.114;2022-07-24T15:04:01;35.50;22.90
22532;DHT22;11432;46.924;7.114;2022-07-24T15:06:28;35.80;20.60
22532;DHT22;11432;46.924;7.114;2022-07-24T15:08:54;35.80;21.60
22532;DHT22;11432;46.924;7.114;2022-07-24T15:11:20;35.80;21.60
22532;DHT22;11432;46.924;7.114;2022-07-24T15:13:48;35.80;22.10
22532;DHT22;11432;46.924;7.114;2022-07-24T15:16:14;35.50;21.50
22532;DHT22;11432;46.924;7.114;2022-07-24T15:18:40;35.40;21.20
22532;DHT22;11432;46.924;7.114;2022-07-24T15:21:06;34.90;20.60
22532;DHT22;11432;46.924;7.114;2022-07-24T15:23:31;35.40;20.80
22532;DHT22;11432;46.924;7.114;2022-07-24T15:25:58;36.40;19.60
22532;DHT22;11432;46.924;7.114;2022-07-24T15:28:23;36.50;16.90
22532;DHT22;11432;46.924;7.114;2022-07-24T15:30:49;36.30;17.60
22532;DHT22;11432;46.924;7.114;2022-07-24T15:33:15;36.10;18.00
22532;DHT22;11432;46.924;7.114;2022-07-24T15:35:40;36.50;14.40
22532;DHT22;11432;46.924;7.114;2022-07-24T15:38:06;36.30;13.40
22532;DHT22;11432;46.924;7.114;2022-07-24T15:40:31;35.90;11.50
22532;DHT22;11432;46.924;7.114;2022-07-24T15:42:58;36.40;10.40
22532;DHT22;11432;46.924;7.114;2022-07-24T15:45:25;36.80;8.80
22532;DHT22;11432;46.924;7.114;2022-07-24T15:47:51;37.00;10.00
22532;DHT22;11432;46.924;7.114;2022-07-24T15:50:17;37.30;8.40
22532;DHT22;11432;46.924;7.114;2022-07-24T15:52:43;37.20;7.60
22532;DHT22;11432;46.924;7.114;2022-07-24T15:55:09;37.00;8.40
22532;DHT22;11432;46.924;7.114;2022-07-24T15:57:35;36.80;7.90
22532;DHT22;11432;46.924;7.114;2022-07-24T16:00:00;36.90;8.20
22532;DHT22;11432;46.924;7.114;2022-07-24T16:02:26;36.90;8.70
22532;DHT22;11432;46.924;7.114;2022-07-24T16:04:52;37.00;8.00
22532;DHT22;11432;46.924;7.114;2022-07-24T16:07:19;37.00;8.40
22532;DHT22;11432;46.924;7.114;2022-07-24T16:09:46;37.60;8.40
22532;DHT22;11432;46.924;7.114;2022-07-24T16:12:11;37.60;8.80
22532;DHT22;11432;46.924;7.114;2022-07-24T16:14:37;37.60;8.40
22532;DHT22;11432;46.924;7.114;2022-07-24T16:17:03;37.20;8.10
22532;DHT22;11432;46.924;7.114;2022-07-24T16:19:28;36.90;9.40
22532;DHT22;11432;46.924;7.114;2022-07-24T16:21:54;36.50;9.50
22532;DHT22;11432;46.924;7.114;2022-07-24T16:24:20;36.50;9.30
22532;DHT22;11432;46.924;7.114;2022-07-24T16:26:45;36.80;9.40
22532;DHT22;11432;46.924;7.114;2022-07-24T16:29:12;36.60;10.30
22532;DHT22;11432;46.924;7.114;2022-07-24T16:31:38;36.90;12.50
22532;DHT22;11432;46.924;7.114;2022-07-24T16:34:03;36.90;11.40